createdAt,value
2024-05-09T00:00:54.232Z,100656.20
2024-05-09T00:03:47.175Z,100657.49
2024-05-09T00:06:18.664Z,100654.39
2024-05-09T00:08:50.703Z,100656.05
2024-05-09T00:11:23.118Z,100656.47
2024-05-09T00:13:54.980Z,100655.79
2024-05-09T00:16:25.460Z,100656.33
2024-05-09T00:18:57.382Z,100651.42
2024-05-09T00:21:27.848Z,100653.23
2024-05-09T00:23:59.633Z,100656.13
2024-05-09T00:26:30.197Z,100659.35
2024-05-09T00:29:02.339Z,100664.98
2024-05-09T00:31:32.750Z,100666.88
2024-05-09T00:34:04.575Z,100666.15
2024-05-09T00:36:35.329Z,100665.14
2024-05-09T00:39:07.087Z,100663.23
2024-05-09T00:41:37.424Z,100665.84
2024-05-09T00:44:09.408Z,100666.02
2024-05-09T00:46:39.856Z,100660.68
2024-05-09T00:49:11.963Z,100657.75
2024-05-09T00:51:42.222Z,100651.21
2024-05-09T00:54:14.197Z,100655.48
2024-05-09T00:56:44.575Z,100657.33
2024-05-09T00:59:16.654Z,100656.41
2024-05-09T01:01:47.099Z,100660.83
2024-05-09T01:04:18.957Z,100666.43
2024-05-09T01:06:49.356Z,100667.31
2024-05-09T01:09:21.010Z,100666.26
2024-05-09T01:11:51.740Z,100660.73
2024-05-09T01:14:23.376Z,100663.52
2024-05-09T01:16:54.047Z,100661.70
2024-05-09T01:19:29.837Z,100661.63
2024-05-09T01:22:01.530Z,100665.71
2024-05-09T01:24:31.959Z,100664.45
2024-05-09T01:27:04.236Z,100667.84
2024-05-09T01:29:34.385Z,100669.67
2024-05-09T01:32:06.352Z,100670.17
2024-05-09T01:34:36.847Z,100670.29
2024-05-09T01:37:08.601Z,100671.98
2024-05-09T01:39:38.829Z,100671.55
2024-05-09T01:42:10.594Z,100664.18
2024-05-09T01:44:41.434Z,100665.79
2024-05-09T01:47:13.293Z,100667.20
2024-05-09T01:49:44.025Z,100669.47
2024-05-09T01:52:15.873Z,100668.31
2024-05-09T01:54:46.415Z,100664.44
2024-05-09T01:57:18.152Z,100658.98
2024-05-09T01:59:48.681Z,100663.74
2024-05-09T02:02:20.618Z,100663.02
2024-05-09T02:04:51.518Z,100659.72
2024-05-09T02:07:23.252Z,100657.84
2024-05-09T02:09:54.385Z,100658.89
2024-05-09T02:12:25.972Z,100658.71
2024-05-09T02:14:56.563Z,100658.20
2024-05-09T02:17:28.351Z,100658.05
2024-05-09T02:19:59.454Z,100652.23
2024-05-09T02:22:31.237Z,100653.77
2024-05-09T02:25:01.447Z,100654.42
2024-05-09T02:27:33.618Z,100656.37
2024-05-09T02:30:09.887Z,100655.36
2024-05-09T02:32:47.579Z,100655.74
2024-05-09T02:35:18.774Z,100654.38
2024-05-09T02:37:50.388Z,100656.84
2024-05-09T02:40:28.913Z,100657.76
2024-05-09T02:43:10.484Z,100656.70
2024-05-09T02:45:43.983Z,100659.08
2024-05-09T02:48:14.723Z,100665.08
2024-05-09T02:50:46.520Z,100666.23
2024-05-09T02:53:17.323Z,100663.23
2024-05-09T02:55:48.940Z,100673.46
2024-05-09T02:58:19.527Z,100674.08
2024-05-09T03:00:51.008Z,100673.13
2024-05-09T03:03:21.702Z,100675.73
2024-05-09T03:05:53.524Z,100673.48
2024-05-09T03:08:23.909Z,100677.27
2024-05-09T03:10:55.596Z,100678.64
2024-05-09T03:13:26.136Z,100679.62
2024-05-09T03:16:00.027Z,100680.97
2024-05-09T03:18:30.474Z,100683.05
2024-05-09T03:21:02.261Z,100682.02
2024-05-09T03:23:32.970Z,100680.28
2024-05-09T03:26:09.501Z,100681.43
2024-05-09T03:28:44.284Z,100685.83
2024-05-09T03:31:18.499Z,100683.69
2024-05-09T03:33:49.049Z,100684.08
2024-05-09T03:36:21.312Z,100680.34
2024-05-09T03:38:51.705Z,100678.88
2024-05-09T03:41:23.687Z,100675.02
2024-05-09T03:43:54.096Z,100678.59
2024-05-09T03:46:25.860Z,100672.16
2024-05-09T03:48:57.080Z,100675.23
2024-05-09T03:51:28.762Z,100680.09
2024-05-09T03:53:58.976Z,100679.00
2024-05-09T03:56:30.956Z,100678.77
2024-05-09T03:59:01.588Z,100683.19
2024-05-09T04:01:33.216Z,100685.59
2024-05-09T04:04:03.882Z,100686.67
2024-05-09T04:06:35.712Z,100691.31
2024-05-09T04:09:05.942Z,100693.88
2024-05-09T04:11:37.780Z,100700.05
2024-05-09T04:14:08.244Z,100689.79
2024-05-09T04:16:39.915Z,100693.43
2024-05-09T04:19:10.156Z,100696.83
2024-05-09T04:21:41.955Z,100697.86
2024-05-09T04:24:12.175Z,100696.60
2024-05-09T04:26:44.106Z,100702.88
2024-05-09T04:29:14.524Z,100703.52
2024-05-09T04:31:46.318Z,100708.60
2024-05-09T04:34:16.670Z,100715.77
2024-05-09T04:36:48.384Z,100720.79
2024-05-09T04:39:18.480Z,100718.77
2024-05-09T04:41:50.075Z,100726.34
2024-05-09T04:44:20.705Z,100725.99
2024-05-09T04:46:52.583Z,100726.17
2024-05-09T04:49:24.256Z,100726.49
2024-05-09T04:51:55.725Z,100722.89
2024-05-09T04:54:33.997Z,100727.69
2024-05-09T04:57:08.184Z,100726.66
2024-05-09T04:59:39.240Z,100726.31
2024-05-09T05:02:10.998Z,100727.48
2024-05-09T05:04:41.521Z,100729.21
2024-05-09T05:07:13.407Z,100727.44
2024-05-09T05:09:43.738Z,100730.52
2024-05-09T05:12:34.222Z,100730.64
2024-05-09T05:15:06.785Z,100735.42
2024-05-09T05:17:37.363Z,100733.06
2024-05-09T05:20:15.039Z,100735.48
2024-05-09T05:22:48.005Z,100735.59
2024-05-09T05:25:18.747Z,100738.45
2024-05-09T05:27:50.424Z,100741.39
2024-05-09T05:30:25.272Z,100740.26
2024-05-09T05:33:01.136Z,100739.20
2024-05-09T05:35:31.664Z,100737.70
2024-05-09T05:38:04.088Z,100731.64
2024-05-09T05:40:37.202Z,100732.73
2024-05-09T05:43:16.156Z,100732.59
2024-05-09T05:45:48.237Z,100730.54
2024-05-09T05:48:18.946Z,100726.25
2024-05-09T05:50:51.036Z,100730.35
2024-05-09T05:53:21.575Z,100733.07
2024-05-09T05:55:53.437Z,100730.20
2024-05-09T05:58:23.748Z,100729.84
2024-05-09T06:00:55.737Z,100730.34
2024-05-09T06:03:26.268Z,100730.77
2024-05-09T06:06:04.168Z,100727.29
2024-05-09T06:08:35.747Z,100723.88
2024-05-09T06:11:06.147Z,100725.61
2024-05-09T06:13:37.611Z,100730.43
2024-05-09T06:16:07.899Z,100728.89
2024-05-09T06:18:39.806Z,100729.20
2024-05-09T06:21:10.250Z,100729.14
2024-05-09T06:23:46.347Z,100730.89
2024-05-09T06:26:18.104Z,100732.18
2024-05-09T06:28:48.365Z,100736.84
2024-05-09T06:31:20.081Z,100731.61
2024-05-09T06:33:50.518Z,100729.32
2024-05-09T06:36:22.128Z,100731.47
2024-05-09T06:38:52.482Z,100731.60
2024-05-09T06:41:24.203Z,100731.40
2024-05-09T06:43:54.680Z,100728.70
2024-05-09T06:46:26.646Z,100729.27
2024-05-09T06:48:57.398Z,100731.06
2024-05-09T06:51:29.244Z,100731.98
2024-05-09T06:53:59.844Z,100732.71
2024-05-09T06:56:31.434Z,100731.51
2024-05-09T06:59:04.907Z,100731.02
2024-05-09T07:01:36.373Z,100733.00
2024-05-09T07:04:06.795Z,100730.79
2024-05-09T07:06:38.631Z,100726.92
2024-05-09T07:09:08.998Z,100733.42
2024-05-09T07:11:40.608Z,100729.86
2024-05-09T07:14:11.090Z,100731.88
2024-05-09T07:16:42.721Z,100729.64
2024-05-09T07:19:13.319Z,100729.13
2024-05-09T07:21:45.081Z,100734.47
2024-05-09T07:24:15.781Z,100729.00
2024-05-09T07:26:47.398Z,100731.34
2024-05-09T07:29:18.226Z,100731.18
2024-05-09T07:31:51.182Z,100731.30
2024-05-09T07:34:21.844Z,100728.17
2024-05-09T07:36:53.581Z,100729.98
2024-05-09T07:39:24.688Z,100730.30
2024-05-09T07:41:56.173Z,100725.73
2024-05-09T07:44:26.552Z,100728.38
2024-05-09T07:53:29.192Z,100715.52
2024-05-09T07:55:01.676Z,100719.39
2024-05-09T07:57:32.467Z,100715.44
2024-05-09T08:00:04.590Z,100714.41
2024-05-09T08:02:36.531Z,100717.96
2024-05-09T08:05:08.163Z,100720.55
2024-05-09T08:07:39.432Z,100717.52
2024-05-09T08:10:13.078Z,100716.48
2024-05-09T08:12:47.706Z,100715.38
2024-05-09T08:15:17.976Z,100717.15
2024-05-09T08:17:49.657Z,100716.28
2024-05-09T08:20:27.016Z,100715.13
2024-05-09T08:23:02.861Z,100718.53
2024-05-09T08:25:33.380Z,100717.44
2024-05-09T08:28:05.363Z,100724.89
2024-05-09T08:30:37.574Z,100719.20
2024-05-09T08:33:09.990Z,100717.08
2024-05-09T08:35:41.053Z,100710.89
2024-05-09T08:38:12.452Z,100720.55
2024-05-09T08:40:43.375Z,100713.55
2024-05-09T08:43:14.978Z,100714.74
2024-05-09T08:45:47.002Z,100710.11
2024-05-09T08:48:18.829Z,100708.54
2024-05-09T08:50:51.746Z,100705.50
2024-05-09T08:53:23.228Z,100709.94
2024-05-09T08:55:53.656Z,100711.13
2024-05-09T08:58:25.058Z,100715.16
2024-05-09T09:00:55.484Z,100710.56
2024-05-09T09:03:27.913Z,100715.11
2024-05-09T09:06:02.981Z,100720.27
2024-05-09T09:08:34.411Z,100717.79
2024-05-09T09:11:04.960Z,100719.09
2024-05-09T09:13:36.642Z,100709.36
2024-05-09T09:16:07.447Z,100708.05
2024-05-09T09:18:39.403Z,100705.36
2024-05-09T09:21:12.877Z,100707.74
2024-05-09T09:23:44.620Z,100713.54
2024-05-09T09:26:18.352Z,100716.41
2024-05-09T09:28:49.910Z,100715.67
2024-05-09T09:31:20.759Z,100716.37
2024-05-09T09:33:53.588Z,100717.00
2024-05-09T09:36:23.937Z,100711.29
2024-05-09T09:38:55.497Z,100709.76
2024-05-09T09:41:25.955Z,100711.10
2024-05-09T09:43:57.617Z,100708.33
2024-05-09T09:46:28.958Z,100704.80
2024-05-09T09:49:00.959Z,100708.45
2024-05-09T09:51:31.431Z,100704.33
2024-05-09T09:54:03.337Z,100704.60
2024-05-09T09:56:33.474Z,100703.11
2024-05-09T09:59:05.211Z,100698.52
2024-05-09T10:01:36.496Z,100694.08
2024-05-09T10:04:08.622Z,100691.73
2024-05-09T10:06:42.298Z,100687.91
2024-05-09T10:09:16.490Z,100685.70
2024-05-09T10:11:51.837Z,100682.14
2024-05-09T10:14:24.060Z,100681.56
2024-05-09T10:17:04.298Z,100674.91
2024-05-09T10:19:36.503Z,100677.36
2024-05-09T10:22:09.135Z,100674.45
2024-05-09T10:24:47.784Z,100679.05
2024-05-09T10:27:31.341Z,100677.81
2024-05-09T10:30:06.843Z,100674.32
2024-05-09T10:32:40.875Z,100674.34
2024-05-09T10:35:12.705Z,100672.33
2024-05-09T10:37:46.325Z,100669.37
2024-05-09T10:40:23.509Z,100666.84
2024-05-09T10:43:04.663Z,100662.81
2024-05-09T10:45:38.120Z,100661.11
2024-05-09T10:48:08.797Z,100658.39
2024-05-09T10:50:43.884Z,100654.86
2024-05-09T10:53:17.247Z,100650.42
2024-05-09T10:55:57.239Z,100653.84
2024-05-09T10:58:28.858Z,100652.10
2024-05-09T11:01:02.334Z,100652.85
2024-05-09T11:03:36.410Z,100653.86
2024-05-09T11:06:09.880Z,100650.61
2024-05-09T11:08:42.263Z,100649.13
2024-05-09T11:11:12.553Z,100649.09
2024-05-09T11:13:44.271Z,100642.75
2024-05-09T11:16:21.558Z,100639.54
2024-05-09T11:18:57.288Z,100636.02
2024-05-09T11:21:29.373Z,100635.98
2024-05-09T11:23:59.621Z,100631.86
2024-05-09T11:26:34.195Z,100634.75
2024-05-09T11:29:06.797Z,100634.39
2024-05-09T11:31:47.126Z,100631.50
2024-05-09T11:34:18.813Z,100639.94
2024-05-09T11:36:49.392Z,100629.45
2024-05-09T11:39:20.978Z,100622.83
2024-05-09T11:41:51.232Z,100625.70
2024-05-09T11:44:22.777Z,100626.84
2024-05-09T11:46:53.611Z,100622.02
2024-05-09T11:49:26.993Z,100623.70
2024-05-09T11:51:57.488Z,100629.30
2024-05-09T11:54:29.104Z,100628.74
2024-05-09T11:56:59.303Z,100629.21
2024-05-09T11:59:30.987Z,100623.65
2024-05-09T12:02:01.391Z,100619.52
2024-05-09T12:04:33.377Z,100625.33
2024-05-09T12:07:03.972Z,100620.05
2024-05-09T12:09:35.806Z,100623.30
2024-05-09T12:12:06.130Z,100617.07
2024-05-09T12:14:37.852Z,100617.32
2024-05-09T12:17:08.046Z,100618.58
2024-05-09T12:19:39.663Z,100613.23
2024-05-09T12:22:10.073Z,100614.67
2024-05-09T12:24:41.925Z,100607.95
2024-05-09T12:27:12.133Z,100600.46
2024-05-09T12:29:44.212Z,100591.73
2024-05-09T12:32:14.563Z,100589.69
2024-05-09T12:34:46.281Z,100587.45
2024-05-09T12:37:16.738Z,100584.02
2024-05-09T12:39:48.483Z,100584.38
2024-05-09T12:42:26.741Z,100589.05
2024-05-09T12:44:59.891Z,100585.06
2024-05-09T12:47:30.343Z,100585.35
2024-05-09T12:50:02.979Z,100582.51
2024-05-09T12:52:34.224Z,100577.96
2024-05-09T12:55:06.286Z,100575.84
2024-05-09T12:57:36.630Z,100569.89
2024-05-09T13:00:14.232Z,100560.27
2024-05-09T13:02:52.619Z,100560.69
2024-05-09T13:05:22.904Z,100562.66
2024-05-09T13:07:56.435Z,100565.56
2024-05-09T13:10:31.989Z,100565.44
2024-05-09T13:13:05.096Z,100558.63
2024-05-09T13:15:36.913Z,100557.25
2024-05-09T13:18:08.724Z,100560.48
2024-05-09T13:20:39.404Z,100556.14
2024-05-09T13:23:11.108Z,100555.81
2024-05-09T13:25:41.666Z,100551.02
2024-05-09T13:28:13.333Z,100546.80
2024-05-09T13:30:43.769Z,100541.00
2024-05-09T13:33:15.650Z,100536.71
2024-05-09T13:35:49.720Z,100535.53
2024-05-09T13:38:23.046Z,100534.16
2024-05-09T13:40:53.448Z,100531.27
2024-05-09T13:43:25.502Z,100530.77
2024-05-09T13:45:57.431Z,100532.73
2024-05-09T13:48:29.145Z,100528.48
2024-05-09T13:50:59.585Z,100523.28
2024-05-09T13:53:31.013Z,100524.91
2024-05-09T13:56:01.391Z,100526.08
2024-05-09T13:58:32.929Z,100521.66
2024-05-09T14:01:03.558Z,100522.12
2024-05-09T14:03:35.191Z,100522.22
2024-05-09T14:06:07.076Z,100520.42
2024-05-09T14:08:39.659Z,100515.42
2024-05-09T14:11:10.468Z,100513.34
2024-05-09T14:13:41.885Z,100519.52
2024-05-09T14:16:12.344Z,100517.62
2024-05-09T14:18:43.947Z,100517.42
2024-05-09T14:21:14.079Z,100511.86
2024-05-09T14:23:45.481Z,100512.73
2024-05-09T14:26:15.771Z,100506.84
2024-05-09T14:28:47.207Z,100509.54
2024-05-09T14:31:17.546Z,100508.72
2024-05-09T14:33:49.232Z,100507.98
2024-05-09T14:36:19.828Z,100510.73
2024-05-09T14:38:51.311Z,100507.16
2024-05-09T14:41:21.736Z,100508.42
2024-05-09T14:43:53.300Z,100508.09
2024-05-09T14:46:23.974Z,100500.90
2024-05-09T14:48:55.721Z,100497.36
2024-05-09T14:51:26.553Z,100497.86
2024-05-09T14:53:58.134Z,100491.57
2024-05-09T14:56:28.466Z,100491.23
2024-05-09T14:59:00.039Z,100487.73
2024-05-09T15:01:31.083Z,100494.55
2024-05-09T15:04:02.950Z,100484.85
2024-05-09T15:06:33.485Z,100483.26
2024-05-09T15:09:06.616Z,100479.27
2024-05-09T15:11:37.028Z,100480.50
2024-05-09T15:14:09.587Z,100480.09
2024-05-09T15:16:39.952Z,100481.96
2024-05-09T15:19:11.859Z,100477.77
2024-05-09T15:21:42.163Z,100470.69
2024-05-09T15:24:13.726Z,100473.07
2024-05-09T15:26:44.071Z,100469.97
2024-05-09T15:29:16.182Z,100467.10
2024-05-09T15:31:46.344Z,100468.67
2024-05-09T15:34:18.017Z,100468.85
2024-05-09T15:36:51.226Z,100467.02
2024-05-09T15:39:25.283Z,100464.20
2024-05-09T15:41:57.425Z,100456.89
2024-05-09T15:44:29.019Z,100458.25
2024-05-09T15:46:59.158Z,100458.33
2024-05-09T15:49:31.181Z,100453.77
2024-05-09T15:52:01.789Z,100457.62
2024-05-09T15:54:34.039Z,100452.89
2024-05-09T15:57:05.138Z,100452.62
2024-05-09T15:59:36.682Z,100450.33
2024-05-09T16:02:07.911Z,100451.77
2024-05-09T16:04:42.177Z,100450.23
2024-05-09T16:07:12.634Z,100454.73
2024-05-09T16:09:44.454Z,100453.08
2024-05-09T16:12:14.771Z,100449.75
2024-05-09T16:14:47.393Z,100446.87
2024-05-09T16:17:17.755Z,100444.08
2024-05-09T16:19:49.441Z,100441.38
2024-05-09T16:22:19.802Z,100437.70
2024-05-09T16:24:51.572Z,100442.45
2024-05-09T16:27:22.322Z,100442.09
2024-05-09T16:29:55.860Z,100441.84
2024-05-09T16:32:26.114Z,100444.81
2024-05-09T16:34:58.322Z,100442.79
2024-05-09T16:37:29.655Z,100442.58
2024-05-09T16:40:01.599Z,100443.08
2024-05-09T16:42:32.181Z,100444.46
2024-05-09T16:45:04.349Z,100444.36
2024-05-09T16:47:35.028Z,100445.73
2024-05-09T16:50:08.564Z,100443.55
2024-05-09T16:52:39.309Z,100442.00
2024-05-09T16:55:10.993Z,100436.98
2024-05-09T16:57:41.579Z,100443.11
2024-05-09T17:00:21.934Z,100443.09
2024-05-09T17:03:01.937Z,100437.40
2024-05-09T17:05:32.713Z,100437.95
2024-05-09T17:08:04.827Z,100440.45
2024-05-09T17:10:36.522Z,100441.84
2024-05-09T17:13:09.911Z,100442.29
2024-05-09T17:15:41.223Z,100446.34
2024-05-09T17:18:12.835Z,100441.20
2024-05-09T17:20:43.188Z,100443.52
2024-05-09T17:23:15.769Z,100443.33
2024-05-09T17:25:46.400Z,100440.00
2024-05-09T17:28:18.394Z,100440.71
2024-05-09T17:30:49.182Z,100442.04
2024-05-09T17:33:21.304Z,100441.20
2024-05-09T17:35:51.860Z,100439.23
2024-05-09T17:38:23.760Z,100434.77
2024-05-09T17:40:55.128Z,100433.50
2024-05-09T17:43:27.165Z,100434.60
2024-05-09T17:45:57.744Z,100433.27
2024-05-09T17:48:29.309Z,100431.03
2024-05-09T17:50:59.838Z,100431.10
2024-05-09T17:53:31.249Z,100429.86
2024-05-09T17:56:02.318Z,100430.24
2024-05-09T17:58:34.056Z,100433.39
2024-05-09T18:01:04.792Z,100435.90
2024-05-09T18:03:36.911Z,100436.26
2024-05-09T18:06:07.411Z,100440.52
2024-05-09T18:08:38.915Z,100439.26
2024-05-09T18:11:09.757Z,100441.91
2024-05-09T18:13:41.339Z,100441.84
2024-05-09T18:16:11.685Z,100444.43
2024-05-09T18:18:43.346Z,100445.97
2024-05-09T18:21:13.653Z,100446.64
2024-05-09T18:23:45.148Z,100452.88
2024-05-09T18:26:16.028Z,100451.16
2024-05-09T18:28:47.447Z,100452.42
2024-05-09T18:31:17.850Z,100449.08
2024-05-09T18:33:49.496Z,100453.25
2024-05-09T18:36:20.152Z,100458.40
2024-05-09T18:38:51.701Z,100457.39
2024-05-09T18:41:22.340Z,100461.21
2024-05-09T18:43:55.164Z,100466.25
2024-05-09T18:46:25.867Z,100471.30
2024-05-09T18:48:58.012Z,100477.75
2024-05-09T18:51:28.895Z,100475.20
2024-05-09T18:54:00.475Z,100479.65
2024-05-09T18:56:30.929Z,100482.55
2024-05-09T18:59:02.690Z,100485.05
2024-05-09T19:01:33.183Z,100485.13
2024-05-09T19:04:05.329Z,100491.40
2024-05-09T19:06:36.666Z,100493.84
2024-05-09T19:09:08.683Z,100496.13
2024-05-09T19:11:42.288Z,100496.10
2024-05-09T19:14:14.162Z,100498.38
2024-05-09T19:16:44.574Z,100497.14
2024-05-09T19:19:16.630Z,100499.70
2024-05-09T19:21:47.007Z,100500.64
2024-05-09T19:24:18.605Z,100498.95
2024-05-09T19:26:49.510Z,100502.20
2024-05-09T19:29:21.097Z,100504.31
2024-05-09T19:31:51.809Z,100505.04
2024-05-09T19:34:23.758Z,100510.61
2024-05-09T19:36:54.250Z,100511.99
2024-05-09T19:39:26.090Z,100508.50
2024-05-09T19:41:56.629Z,100511.78
2024-05-09T19:44:28.307Z,100512.95
2024-05-09T19:46:58.496Z,100514.66
2024-05-09T19:49:30.775Z,100514.13
2024-05-09T19:52:01.269Z,100512.16
2024-05-09T19:54:33.230Z,100513.50
2024-05-09T19:57:03.485Z,100514.79
2024-05-09T19:59:35.174Z,100514.42
2024-05-09T20:02:05.619Z,100514.44
2024-05-09T20:04:37.546Z,100515.80
2024-05-09T20:07:08.129Z,100514.73
2024-05-09T20:09:40.286Z,100512.98
2024-05-09T20:12:11.110Z,100516.27
2024-05-09T20:14:42.986Z,100512.21
2024-05-09T20:17:13.260Z,100510.22
2024-05-09T20:19:45.055Z,100510.02
2024-05-09T20:22:15.370Z,100511.62
2024-05-09T20:24:46.978Z,100512.73
2024-05-09T20:27:17.821Z,100506.67
2024-05-09T20:29:49.353Z,100509.30
2024-05-09T20:32:20.075Z,100509.92
2024-05-09T20:34:52.272Z,100509.67
2024-05-09T20:37:23.306Z,100509.45
2024-05-09T20:39:55.134Z,100510.44
2024-05-09T20:42:25.436Z,100512.14
2024-05-09T20:44:57.167Z,100515.20
2024-05-09T20:47:27.666Z,100518.04
2024-05-09T20:49:59.458Z,100514.64
2024-05-09T20:52:29.708Z,100514.65
2024-05-09T20:55:01.421Z,100513.95
2024-05-09T20:57:32.399Z,100512.91
2024-05-09T21:00:12.041Z,100512.95
2024-05-09T21:02:47.246Z,100511.31
2024-05-09T21:05:19.151Z,100513.95
2024-05-09T21:07:51.004Z,100514.02
2024-05-09T21:10:22.842Z,100513.58
2024-05-09T21:12:55.106Z,100510.52
2024-05-09T21:15:25.253Z,100512.90
2024-05-09T21:17:56.815Z,100510.08
2024-05-09T21:23:02.358Z,100510.59
2024-05-09T21:25:33.153Z,100511.17
2024-05-09T21:28:05.328Z,100511.05
2024-05-09T21:30:41.676Z,100506.36
2024-05-09T21:33:15.433Z,100503.20
2024-05-09T21:35:46.543Z,100502.97
2024-05-09T21:38:18.194Z,100502.05
2024-05-09T21:40:48.510Z,100503.82
2024-05-09T21:43:20.196Z,100502.33
2024-05-09T21:45:50.964Z,100506.66
2024-05-09T21:48:22.592Z,100506.13
2024-05-09T21:50:52.974Z,100506.58
2024-05-09T21:53:24.789Z,100507.58
2024-05-09T21:55:55.059Z,100508.41
2024-05-09T21:58:26.885Z,100507.67
2024-05-09T22:00:57.825Z,100508.95
2024-05-09T22:03:29.378Z,100510.59
2024-05-09T22:06:00.563Z,100507.77
2024-05-09T22:08:32.218Z,100509.11
2024-05-09T22:11:02.862Z,100506.38
2024-05-09T22:13:34.522Z,100508.84
2024-05-09T22:16:05.827Z,100507.30
2024-05-09T22:18:37.475Z,100506.02
2024-05-09T22:21:07.979Z,100502.67
2024-05-09T22:23:39.384Z,100500.50
2024-05-09T22:26:10.097Z,100501.31
2024-05-09T22:28:41.500Z,100501.58
2024-05-09T22:31:11.781Z,100499.27
2024-05-09T22:33:46.366Z,100501.72
2024-05-09T22:36:19.398Z,100502.13
2024-05-09T22:38:50.006Z,100506.48
2024-05-09T22:41:21.728Z,100505.79
2024-05-09T22:43:52.091Z,100509.25
2024-05-09T22:46:23.827Z,100505.08
2024-05-09T22:48:54.690Z,100507.66
2024-05-09T22:51:26.564Z,100502.93
2024-05-09T22:53:57.013Z,100503.37
2024-05-09T22:56:29.266Z,100505.58
2024-05-09T22:59:00.638Z,100507.85
2024-05-09T23:01:32.413Z,100504.11
2024-05-09T23:04:03.149Z,100504.16
2024-05-09T23:06:35.135Z,100501.43
2024-05-09T23:09:07.461Z,100504.45
2024-05-09T23:11:42.605Z,100504.36
2024-05-09T23:14:15.396Z,100500.45
2024-05-09T23:16:46.011Z,100502.73
2024-05-09T23:19:17.675Z,100499.83
2024-05-09T23:21:48.091Z,100500.10
2024-05-09T23:24:19.834Z,100497.90
2024-05-09T23:26:50.229Z,100496.02
2024-05-09T23:29:21.934Z,100497.54
2024-05-09T23:31:52.081Z,100499.02
2024-05-09T23:34:24.289Z,100497.38
2024-05-09T23:36:54.662Z,100497.63
2024-05-09T23:39:26.209Z,100493.59
2024-05-09T23:41:56.297Z,100494.61
2024-05-09T23:44:27.931Z,100497.47
2024-05-09T23:46:58.151Z,100495.91
2024-05-09T23:49:29.830Z,100493.19
2024-05-09T23:52:00.125Z,100492.75
2024-05-09T23:54:32.003Z,100491.92
2024-05-09T23:57:02.223Z,100491.05
2024-05-09T23:59:33.878Z,100491.58
